createdAt,value
2023-02-11T00:00:22.528Z,1018.86
2023-02-11T00:01:22.522Z,1018.84
2023-02-11T00:02:22.543Z,1018.86
2023-02-11T00:03:22.552Z,1018.84
2023-02-11T00:04:22.485Z,1018.84
2023-02-11T00:05:22.461Z,1018.87
2023-02-11T00:06:22.469Z,1018.84
2023-02-11T00:07:22.450Z,1018.83
2023-02-11T00:08:22.445Z,1018.82
2023-02-11T00:09:22.399Z,1018.78
2023-02-11T00:10:22.401Z,1018.78
2023-02-11T00:11:22.397Z,1018.72
2023-02-11T00:12:22.372Z,1018.75
2023-02-11T00:13:22.378Z,1018.70
2023-02-11T00:14:22.350Z,1018.67
2023-02-11T00:15:22.343Z,1018.62
2023-02-11T00:16:22.350Z,1018.60
2023-02-11T00:17:22.318Z,1018.61
2023-02-11T00:18:22.308Z,1018.60
2023-02-11T00:19:22.290Z,1018.54
2023-02-11T00:20:22.279Z,1018.56
2023-02-11T00:21:22.258Z,1018.51
2023-02-11T00:22:22.264Z,1018.54
2023-02-11T00:23:22.252Z,1018.47
2023-02-11T00:24:22.251Z,1018.45
2023-02-11T00:25:22.209Z,1018.43
2023-02-11T00:26:22.197Z,1018.40
2023-02-11T00:27:22.200Z,1018.39
2023-02-11T00:28:22.209Z,1018.38
2023-02-11T00:29:22.158Z,1018.32
2023-02-11T00:30:22.139Z,1018.31
2023-02-11T00:31:22.260Z,1018.20
2023-02-11T00:32:22.115Z,1018.08
2023-02-11T00:33:22.122Z,1018.05
2023-02-11T00:34:22.084Z,1018.04
2023-02-11T00:35:22.078Z,1017.96
2023-02-11T00:36:22.069Z,1017.96
2023-02-11T00:37:22.051Z,1017.94
2023-02-11T00:38:22.052Z,1017.92
2023-02-11T00:39:22.039Z,1017.95
2023-02-11T00:40:21.998Z,1017.99
2023-02-11T00:41:22.001Z,1017.96
2023-02-11T00:42:21.977Z,1017.94
2023-02-11T00:43:21.992Z,1017.87
2023-02-11T00:44:21.948Z,1017.88
2023-02-11T00:45:21.945Z,1017.89
2023-02-11T00:46:22.008Z,1017.83
2023-02-11T00:47:21.916Z,1017.87
2023-02-11T00:48:21.915Z,1017.87
2023-02-11T00:49:21.891Z,1017.88
2023-02-11T00:50:21.874Z,1017.86
2023-02-11T00:51:21.867Z,1017.81
2023-02-11T00:52:21.874Z,1017.79
2023-02-11T00:53:21.846Z,1017.76
2023-02-11T00:54:21.822Z,1017.83
2023-02-11T00:55:21.830Z,1017.81
2023-02-11T00:56:21.829Z,1017.80
2023-02-11T00:57:21.787Z,1017.81
2023-02-11T00:58:21.782Z,1017.84
2023-02-11T00:59:21.774Z,1017.89
2023-02-11T01:00:21.752Z,1017.97
2023-02-11T01:01:21.802Z,1017.97
2023-02-11T01:02:21.721Z,1018.02
2023-02-11T01:03:21.750Z,1017.98
2023-02-11T01:04:21.696Z,1017.99
2023-02-11T01:05:21.712Z,1017.97
2023-02-11T01:06:21.672Z,1017.93
2023-02-11T01:07:21.667Z,1017.91
2023-02-11T01:08:21.655Z,1017.91
2023-02-11T01:09:21.634Z,1017.95
2023-02-11T01:10:21.664Z,1017.87
2023-02-11T01:11:21.614Z,1017.82
2023-02-11T01:12:21.597Z,1017.82
2023-02-11T01:13:21.603Z,1017.82
2023-02-11T01:14:21.573Z,1017.75
2023-02-11T01:15:21.579Z,1017.71
2023-02-11T01:16:21.611Z,1017.71
2023-02-11T01:17:21.534Z,1017.70
2023-02-11T01:18:21.542Z,1017.70
2023-02-11T01:19:21.518Z,1017.69
2023-02-11T01:20:21.493Z,1017.70
2023-02-11T01:21:21.494Z,1017.74
2023-02-11T01:22:21.464Z,1017.73
2023-02-11T01:23:21.465Z,1017.70
2023-02-11T01:24:21.453Z,1017.70
2023-02-11T01:25:21.432Z,1017.66
2023-02-11T01:26:21.420Z,1017.63
2023-02-11T01:27:21.408Z,1017.64
2023-02-11T01:28:21.515Z,1017.62
2023-02-11T01:29:21.381Z,1017.57
2023-02-11T01:30:21.370Z,1017.54
2023-02-11T01:31:21.455Z,1017.50
2023-02-11T01:32:21.352Z,1017.47
2023-02-11T01:33:21.331Z,1017.45
2023-02-11T01:34:21.338Z,1017.40
2023-02-11T01:35:21.371Z,1017.40
2023-02-11T01:36:21.290Z,1017.31
2023-02-11T01:37:21.270Z,1017.31
2023-02-11T01:38:21.261Z,1017.30
2023-02-11T01:39:21.262Z,1017.29
2023-02-11T01:40:21.238Z,1017.30
2023-02-11T01:41:21.236Z,1017.31
2023-02-11T01:42:21.273Z,1017.31
2023-02-11T01:43:21.204Z,1017.34
2023-02-11T01:44:21.199Z,1017.32
2023-02-11T01:45:22.262Z,1017.29
2023-02-11T01:46:21.231Z,1017.31
2023-02-11T01:47:21.149Z,1017.33
2023-02-11T01:48:21.137Z,1017.36
2023-02-11T01:49:21.178Z,1017.40
2023-02-11T01:50:21.106Z,1017.46
2023-02-11T01:51:21.104Z,1017.45
2023-02-11T01:52:21.079Z,1017.44
2023-02-11T01:53:21.081Z,1017.39
2023-02-11T01:54:21.072Z,1017.38
2023-02-11T01:55:21.051Z,1017.36
2023-02-11T01:56:21.035Z,1017.35
2023-02-11T01:57:21.060Z,1017.35
2023-02-11T01:58:21.009Z,1017.32
2023-02-11T01:59:21.010Z,1017.40
2023-02-11T02:00:20.989Z,1017.47
2023-02-11T02:01:21.072Z,1017.52
2023-02-11T02:02:22.025Z,1017.53
2023-02-11T02:03:20.962Z,1017.55
2023-02-11T02:04:20.950Z,1017.54
2023-02-11T02:05:20.918Z,1017.53
2023-02-11T02:06:20.895Z,1017.47
2023-02-11T02:07:20.946Z,1017.44
2023-02-11T02:08:20.880Z,1017.45
2023-02-11T02:09:20.883Z,1017.46
2023-02-11T02:10:20.851Z,1017.51
2023-02-11T02:11:20.845Z,1017.53
2023-02-11T02:12:20.827Z,1017.53
2023-02-11T02:13:20.823Z,1017.55
2023-02-11T02:14:20.863Z,1017.47
2023-02-11T02:15:20.791Z,1017.46
2023-02-11T02:16:20.869Z,1017.39
2023-02-11T02:17:20.769Z,1017.39
2023-02-11T02:18:20.739Z,1017.35
2023-02-11T02:19:20.746Z,1017.34
2023-02-11T02:20:20.720Z,1017.35
2023-02-11T02:21:20.730Z,1017.29
2023-02-11T02:22:20.699Z,1017.25
2023-02-11T02:23:20.694Z,1017.34
2023-02-11T02:24:20.675Z,1017.35
2023-02-11T02:25:20.662Z,1017.37
2023-02-11T02:26:20.657Z,1017.39
2023-02-11T02:27:20.624Z,1017.39
2023-02-11T02:28:20.669Z,1017.40
2023-02-11T02:29:20.623Z,1017.38
2023-02-11T02:30:20.637Z,1017.35
2023-02-11T02:31:20.590Z,1017.34
2023-02-11T02:32:20.586Z,1017.32
2023-02-11T02:33:22.613Z,1017.34
2023-02-11T02:34:20.540Z,1017.36
2023-02-11T02:35:20.520Z,1017.36
2023-02-11T02:36:20.515Z,1017.35
2023-02-11T02:37:20.498Z,1017.30
2023-02-11T02:38:20.480Z,1017.36
2023-02-11T02:39:20.615Z,1017.29
2023-02-11T02:40:20.457Z,1017.28
2023-02-11T02:41:20.449Z,1017.27
2023-02-11T02:42:20.427Z,1017.23
2023-02-11T02:43:20.428Z,1017.15
2023-02-11T02:44:20.413Z,1017.16
2023-02-11T02:45:20.410Z,1017.09
2023-02-11T02:46:20.441Z,1017.04
2023-02-11T02:47:20.379Z,1017.05
2023-02-11T02:48:20.358Z,1017.03
2023-02-11T02:49:20.361Z,1016.99
2023-02-11T02:50:20.350Z,1016.90
2023-02-11T02:51:20.332Z,1016.87
2023-02-11T02:52:20.310Z,1016.86
2023-02-11T02:53:20.304Z,1016.88
2023-02-11T02:54:20.291Z,1016.86
2023-02-11T02:55:20.287Z,1016.84
2023-02-11T02:56:20.249Z,1016.82
2023-02-11T02:57:20.251Z,1016.87
2023-02-11T02:58:20.219Z,1016.81
2023-02-11T02:59:20.236Z,1016.85
2023-02-11T03:00:20.208Z,1016.92
2023-02-11T03:01:20.188Z,1016.94
2023-02-11T03:02:20.183Z,1016.99
2023-02-11T03:03:20.184Z,1016.95
2023-02-11T03:04:20.160Z,1016.95
2023-02-11T03:05:20.161Z,1016.94
2023-02-11T03:06:20.118Z,1016.90
2023-02-11T03:07:20.107Z,1016.85
2023-02-11T03:08:20.106Z,1016.63
2023-02-11T03:09:20.100Z,1016.63
2023-02-11T03:10:20.075Z,1016.61
2023-02-11T03:11:20.079Z,1016.60
2023-02-11T03:12:20.045Z,1016.59
2023-02-11T03:13:20.036Z,1016.55
2023-02-11T03:14:20.045Z,1016.54
2023-02-11T03:15:20.015Z,1016.51
2023-02-11T03:16:20.076Z,1016.52
2023-02-11T03:17:19.993Z,1016.49
2023-02-11T03:18:19.976Z,1016.47
2023-02-11T03:19:19.967Z,1016.54
2023-02-11T03:20:19.947Z,1016.58
2023-02-11T03:21:19.949Z,1016.57
2023-02-11T03:22:19.930Z,1016.63
2023-02-11T03:23:19.903Z,1016.60
2023-02-11T03:24:19.902Z,1016.59
2023-02-11T03:25:19.888Z,1016.54
2023-02-11T03:26:19.876Z,1016.54
2023-02-11T03:27:19.867Z,1016.56
2023-02-11T03:28:19.860Z,1016.59
2023-02-11T03:29:19.849Z,1016.62
2023-02-11T03:30:19.823Z,1016.64
2023-02-11T03:31:19.911Z,1016.68
2023-02-11T03:32:19.863Z,1016.73
2023-02-11T03:33:19.782Z,1016.78
2023-02-11T03:34:19.783Z,1016.73
2023-02-11T03:35:19.765Z,1016.82
2023-02-11T03:36:19.740Z,1016.84
2023-02-11T03:37:19.758Z,1016.87
2023-02-11T03:38:19.710Z,1016.85
2023-02-11T03:39:19.713Z,1016.82
2023-02-11T03:40:19.699Z,1016.82
2023-02-11T03:41:19.678Z,1016.73
2023-02-11T03:42:19.666Z,1016.73
2023-02-11T03:43:19.654Z,1016.68
2023-02-11T03:44:19.640Z,1016.67
2023-02-11T03:45:19.631Z,1016.64
2023-02-11T03:46:19.696Z,1016.62
2023-02-11T03:47:19.619Z,1016.63
2023-02-11T03:48:19.595Z,1016.64
2023-02-11T03:49:19.581Z,1016.63
2023-02-11T03:50:19.556Z,1016.61
2023-02-11T03:51:19.559Z,1016.59
2023-02-11T03:52:19.538Z,1016.57
2023-02-11T03:53:19.533Z,1016.58
2023-02-11T03:54:19.516Z,1016.56
2023-02-11T03:55:19.511Z,1016.53
2023-02-11T03:56:19.485Z,1016.51
2023-02-11T03:57:19.501Z,1016.52
2023-02-11T03:58:19.461Z,1016.49
2023-02-11T03:59:19.460Z,1016.52
2023-02-11T04:00:19.425Z,1016.46
2023-02-11T04:01:19.481Z,1016.54
2023-02-11T04:02:19.405Z,1016.51
2023-02-11T04:03:19.454Z,1016.53
2023-02-11T04:04:19.398Z,1016.48
2023-02-11T04:05:19.363Z,1016.47
2023-02-11T04:06:19.354Z,1016.44
2023-02-11T04:07:19.345Z,1016.36
2023-02-11T04:08:19.343Z,1016.37
2023-02-11T04:09:19.325Z,1016.34
2023-02-11T04:10:19.316Z,1016.31
2023-02-11T04:11:19.303Z,1016.34
2023-02-11T04:12:19.280Z,1016.33
2023-02-11T04:13:19.283Z,1016.27
2023-02-11T04:14:19.254Z,1016.33
2023-02-11T04:15:19.252Z,1016.32
2023-02-11T04:16:19.264Z,1016.35
2023-02-11T04:17:19.224Z,1016.33
2023-02-11T04:18:19.193Z,1016.32
2023-02-11T04:19:19.182Z,1016.38
2023-02-11T04:20:19.184Z,1016.40
2023-02-11T04:21:19.162Z,1016.31
2023-02-11T04:22:19.161Z,1016.46
2023-02-11T04:23:19.147Z,1016.40
2023-02-11T04:24:19.111Z,1016.40
2023-02-11T04:25:19.120Z,1016.37
2023-02-11T04:26:19.098Z,1016.35
2023-02-11T04:27:19.082Z,1016.28
2023-02-11T04:28:19.107Z,1016.30
2023-02-11T04:29:19.064Z,1016.32
2023-02-11T04:30:19.051Z,1016.29
2023-02-11T04:31:19.118Z,1016.27
2023-02-11T04:32:19.077Z,1016.29
2023-02-11T04:33:18.990Z,1016.27
2023-02-11T04:34:18.989Z,1016.29
2023-02-11T04:35:18.994Z,1016.29
2023-02-11T04:36:18.958Z,1016.25
2023-02-11T04:37:18.949Z,1016.28
2023-02-11T04:38:18.949Z,1016.27
2023-02-11T04:39:19.139Z,1016.22
2023-02-11T04:40:18.924Z,1016.22
2023-02-11T04:41:18.911Z,1016.21
2023-02-11T04:42:18.889Z,1016.22
2023-02-11T04:43:18.875Z,1016.16
2023-02-11T04:44:18.869Z,1016.19
2023-02-11T04:45:18.863Z,1016.16
2023-02-11T04:46:18.899Z,1016.15
2023-02-11T04:47:18.816Z,1016.19
2023-02-11T04:48:18.810Z,1016.17
2023-02-11T04:49:18.813Z,1016.16
2023-02-11T04:50:18.797Z,1016.17
2023-02-11T04:51:18.773Z,1016.21
2023-02-11T04:52:18.768Z,1016.22
2023-02-11T04:53:18.745Z,1016.25
2023-02-11T04:54:18.738Z,1016.20
2023-02-11T04:55:18.760Z,1016.12
2023-02-11T04:56:18.714Z,1016.20
2023-02-11T04:57:18.696Z,1016.12
2023-02-11T04:58:18.686Z,1016.15
2023-02-11T04:59:18.667Z,1016.17
2023-02-11T05:00:18.667Z,1016.23
2023-02-11T05:01:18.689Z,1016.22
2023-02-11T05:02:18.634Z,1016.25
2023-02-11T05:03:18.612Z,1016.26
2023-02-11T05:04:18.671Z,1016.30
2023-02-11T05:05:18.605Z,1016.22
2023-02-11T05:06:18.583Z,1016.18
2023-02-11T05:07:18.562Z,1016.20
2023-02-11T05:08:18.556Z,1016.20
2023-02-11T05:09:18.540Z,1016.23
2023-02-11T05:10:18.541Z,1016.21
2023-02-11T05:11:18.513Z,1016.26
2023-02-11T05:12:18.500Z,1016.26
2023-02-11T05:13:18.480Z,1016.21
2023-02-11T05:14:18.481Z,1016.22
2023-02-11T05:15:18.462Z,1016.22
2023-02-11T05:16:18.540Z,1016.23
2023-02-11T05:17:18.439Z,1016.24
2023-02-11T05:18:18.419Z,1016.25
2023-02-11T05:19:18.398Z,1016.26
2023-02-11T05:20:18.398Z,1016.24
2023-02-11T05:21:18.388Z,1016.28
2023-02-11T05:22:18.368Z,1016.30
2023-02-11T05:23:18.364Z,1016.27
2023-02-11T05:24:18.349Z,1016.25
2023-02-11T05:25:18.327Z,1016.25
2023-02-11T05:26:18.337Z,1016.23
2023-02-11T05:27:18.307Z,1016.27
2023-02-11T05:28:18.363Z,1016.27
2023-02-11T05:29:18.276Z,1016.26
2023-02-11T05:30:18.265Z,1016.29
2023-02-11T05:31:18.323Z,1016.32
2023-02-11T05:32:18.259Z,1016.27
2023-02-11T05:33:18.225Z,1016.28
2023-02-11T05:34:18.226Z,1016.28
2023-02-11T05:35:18.197Z,1016.31
2023-02-11T05:36:18.213Z,1016.29
2023-02-11T05:37:18.213Z,1016.30
2023-02-11T05:38:18.167Z,1016.34
2023-02-11T05:39:18.146Z,1016.37
2023-02-11T05:40:18.137Z,1016.39
2023-02-11T05:41:18.134Z,1016.35
2023-02-11T05:42:18.116Z,1016.35
2023-02-11T05:43:18.097Z,1016.31
2023-02-11T05:44:18.091Z,1016.33
2023-02-11T05:45:18.070Z,1016.40
2023-02-11T05:46:18.155Z,1016.39
2023-02-11T05:47:18.058Z,1016.38
2023-02-11T05:48:18.031Z,1016.39
2023-02-11T05:49:18.026Z,1016.41
2023-02-11T05:50:18.002Z,1016.35
2023-02-11T05:51:18.028Z,1016.36
2023-02-11T05:52:17.991Z,1016.37
2023-02-11T05:53:17.967Z,1016.35
2023-02-11T05:54:17.961Z,1016.38
2023-02-11T05:55:17.941Z,1016.39
2023-02-11T05:56:17.958Z,1016.40
2023-02-11T05:57:17.921Z,1016.40
2023-02-11T05:58:17.907Z,1016.44
2023-02-11T05:59:17.879Z,1016.44
2023-02-11T06:00:17.890Z,1016.45
2023-02-11T06:01:17.872Z,1016.45
2023-02-11T06:02:17.912Z,1016.43
2023-02-11T06:03:17.880Z,1016.42
2023-02-11T06:04:17.831Z,1016.43
2023-02-11T06:05:17.808Z,1016.39
2023-02-11T06:06:17.840Z,1016.41
2023-02-11T06:07:17.787Z,1016.42
2023-02-11T06:08:17.781Z,1016.40
2023-02-11T06:09:17.764Z,1016.33
2023-02-11T06:10:17.762Z,1016.37
2023-02-11T06:11:17.747Z,1016.35
2023-02-11T06:12:17.728Z,1016.39
2023-02-11T06:13:17.720Z,1016.37
2023-02-11T06:14:17.717Z,1016.34
2023-02-11T06:15:17.684Z,1016.33
2023-02-11T06:16:17.772Z,1016.33
2023-02-11T06:17:17.656Z,1016.31
2023-02-11T06:18:17.646Z,1016.33
2023-02-11T06:19:17.652Z,1016.32
2023-02-11T06:20:17.624Z,1016.31
2023-02-11T06:21:17.637Z,1016.27
2023-02-11T06:22:17.614Z,1016.26
2023-02-11T06:23:17.583Z,1016.25
2023-02-11T06:24:31.559Z,1016.22
2023-02-11T06:25:18.566Z,1016.21
2023-02-11T06:26:17.562Z,1016.22
2023-02-11T06:27:17.538Z,1016.19
2023-02-11T06:28:17.556Z,1016.21
2023-02-11T06:29:17.504Z,1016.15
2023-02-11T06:30:17.503Z,1016.15
2023-02-11T06:31:17.625Z,1016.14
2023-02-11T06:32:39.504Z,1016.08
2023-02-11T06:33:18.460Z,1016.05
2023-02-11T06:34:17.455Z,1016.02
2023-02-11T06:35:17.432Z,1016.03
2023-02-11T06:36:17.441Z,1016.01
2023-02-11T06:37:17.410Z,1016.04
2023-02-11T06:38:17.391Z,1016.04
2023-02-11T06:39:17.380Z,1016.05
2023-02-11T06:40:17.384Z,1016.03
2023-02-11T06:41:17.361Z,1016.01
2023-02-11T06:42:17.351Z,1015.99
2023-02-11T06:43:17.332Z,1016.03
2023-02-11T06:44:17.320Z,1016.02
2023-02-11T06:45:17.299Z,1016.05
2023-02-11T06:46:17.336Z,1016.07
2023-02-11T06:47:17.293Z,1016.07
2023-02-11T06:48:17.272Z,1016.13
2023-02-11T06:49:17.305Z,1016.16
2023-02-11T06:50:17.248Z,1016.20
2023-02-11T06:51:17.231Z,1016.20
2023-02-11T06:52:17.228Z,1016.25
2023-02-11T06:53:17.197Z,1016.24
2023-02-11T06:54:17.190Z,1016.32
2023-02-11T06:55:17.187Z,1016.29
2023-02-11T06:56:17.166Z,1016.23
2023-02-11T06:57:17.217Z,1016.20
2023-02-11T06:58:17.156Z,1016.24
2023-02-11T06:59:17.121Z,1016.22
2023-02-11T07:00:17.107Z,1016.19
2023-02-11T07:01:17.110Z,1016.22
2023-02-11T07:02:19.121Z,1016.16
2023-02-11T07:03:17.212Z,1016.17
2023-02-11T07:04:17.142Z,1016.25
2023-02-11T07:05:17.047Z,1016.29
2023-02-11T07:06:17.044Z,1016.29
2023-02-11T07:07:17.049Z,1016.31
2023-02-11T07:08:17.007Z,1016.28
2023-02-11T07:09:16.994Z,1016.33
2023-02-11T07:10:16.985Z,1016.32
2023-02-11T07:11:16.996Z,1016.28
2023-02-11T07:12:16.977Z,1016.34
2023-02-11T07:13:16.947Z,1016.33
2023-02-11T07:14:16.938Z,1016.32
2023-02-11T07:15:16.927Z,1016.32
2023-02-11T07:16:16.990Z,1016.37
2023-02-11T07:17:16.916Z,1016.31
2023-02-11T07:18:16.896Z,1016.25
2023-02-11T07:19:16.875Z,1016.24
2023-02-11T07:20:16.866Z,1016.27
2023-02-11T07:21:16.843Z,1016.22
2023-02-11T07:22:16.864Z,1016.20
2023-02-11T07:23:16.822Z,1016.22
2023-02-11T07:24:16.817Z,1016.17
2023-02-11T07:25:16.817Z,1016.20
2023-02-11T07:26:16.781Z,1016.19
2023-02-11T07:27:16.787Z,1016.16
2023-02-11T07:28:16.769Z,1016.17
2023-02-11T07:29:16.832Z,1016.18
2023-02-11T07:30:16.731Z,1016.14
2023-02-11T07:31:16.800Z,1016.19
2023-02-11T07:32:16.769Z,1016.23
2023-02-11T07:33:16.698Z,1016.20
2023-02-11T07:34:16.683Z,1016.15
2023-02-11T07:35:16.672Z,1016.17
2023-02-11T07:36:16.761Z,1016.18
2023-02-11T07:37:16.649Z,1016.17
2023-02-11T07:38:16.641Z,1016.17
2023-02-11T07:39:16.620Z,1016.20
2023-02-11T07:40:16.608Z,1016.21
2023-02-11T07:41:16.590Z,1016.23
2023-02-11T07:42:16.596Z,1016.24
2023-02-11T07:43:16.696Z,1016.22
2023-02-11T07:44:16.607Z,1016.20
2023-02-11T07:45:16.542Z,1016.20
2023-02-11T07:46:16.583Z,1016.21
2023-02-11T07:47:16.587Z,1016.21
2023-02-11T07:48:16.517Z,1016.23
2023-02-11T07:49:16.495Z,1016.25
2023-02-11T07:50:16.474Z,1016.27
2023-02-11T07:51:16.494Z,1016.21
2023-02-11T07:52:16.467Z,1016.26
2023-02-11T07:53:16.443Z,1016.23
2023-02-11T07:54:16.425Z,1016.24
2023-02-11T07:55:16.415Z,1016.26
2023-02-11T07:56:16.403Z,1016.28
2023-02-11T07:57:16.403Z,1016.25
2023-02-11T07:58:16.380Z,1016.20
2023-02-11T07:59:16.353Z,1016.20
2023-02-11T08:00:17.138Z,1016.18
2023-02-11T08:01:16.391Z,1016.15
2023-02-11T08:02:16.372Z,1016.20
2023-02-11T08:03:16.325Z,1016.20
2023-02-11T08:04:16.302Z,1016.24
2023-02-11T08:05:16.290Z,1016.26
2023-02-11T08:06:16.271Z,1016.24
2023-02-11T08:07:16.263Z,1016.25
2023-02-11T08:08:16.275Z,1016.22
2023-02-11T08:09:16.235Z,1016.20
2023-02-11T08:10:16.220Z,1016.16
2023-02-11T08:11:16.318Z,1016.20
2023-02-11T08:12:16.197Z,1016.22
2023-02-11T08:13:16.199Z,1016.23
2023-02-11T08:14:16.167Z,1016.16
2023-02-11T08:15:16.167Z,1016.17
2023-02-11T08:16:16.311Z,1016.20
2023-02-11T08:17:16.132Z,1016.19
2023-02-11T08:18:16.126Z,1016.21
2023-02-11T08:19:16.099Z,1016.21
2023-02-11T08:20:16.094Z,1016.27
2023-02-11T08:21:16.156Z,1016.17
2023-02-11T08:22:16.065Z,1016.20
2023-02-11T08:23:16.057Z,1016.17
2023-02-11T08:24:16.071Z,1016.14
2023-02-11T08:25:16.037Z,1016.07
2023-02-11T08:26:16.022Z,1016.12
2023-02-11T08:27:15.991Z,1016.06
2023-02-11T08:28:16.046Z,1016.09
2023-02-11T08:29:15.986Z,1016.15
2023-02-11T08:30:15.974Z,1016.08
2023-02-11T08:31:16.025Z,1016.10
2023-02-11T08:32:15.972Z,1016.17
2023-02-11T08:33:15.932Z,1016.16
2023-02-11T08:34:15.920Z,1016.18
2023-02-11T08:35:15.910Z,1016.23
2023-02-11T08:36:15.896Z,1016.21
2023-02-11T08:37:15.907Z,1016.23
2023-02-11T08:38:15.918Z,1016.22
2023-02-11T08:39:19.544Z,1016.25
2023-02-11T08:40:15.848Z,1016.22
2023-02-11T08:41:15.829Z,1016.21
2023-02-11T08:42:15.811Z,1016.15
2023-02-11T08:43:15.800Z,1016.16
2023-02-11T08:44:15.777Z,1016.18
2023-02-11T08:45:15.773Z,1016.24
2023-02-11T08:46:15.808Z,1016.20
2023-02-11T08:47:15.899Z,1016.20
2023-02-11T08:48:15.738Z,1016.19
2023-02-11T08:49:15.726Z,1016.20
2023-02-11T08:50:15.704Z,1016.24
2023-02-11T08:51:15.702Z,1016.29
2023-02-11T08:52:15.691Z,1016.35
2023-02-11T08:53:15.734Z,1016.35
2023-02-11T08:54:15.648Z,1016.38
2023-02-11T08:55:15.647Z,1016.32
2023-02-11T08:56:15.676Z,1016.26
2023-02-11T08:57:15.626Z,1016.20
2023-02-11T08:58:17.537Z,1016.15
2023-02-11T08:59:15.716Z,1016.05
2023-02-11T09:00:15.579Z,1016.15
2023-02-11T09:01:15.625Z,1016.24
2023-02-11T09:02:15.578Z,1016.24
2023-02-11T09:03:15.561Z,1016.23
2023-02-11T09:04:15.542Z,1016.23
2023-02-11T09:05:15.516Z,1016.20
2023-02-11T09:06:15.563Z,1016.22
2023-02-11T09:07:15.492Z,1016.13
2023-02-11T09:08:15.489Z,1016.19
2023-02-11T09:09:15.512Z,1016.21
2023-02-11T09:10:15.444Z,1016.26
2023-02-11T09:11:15.433Z,1016.26
2023-02-11T09:12:15.419Z,1016.24
2023-02-11T09:13:15.429Z,1016.12
2023-02-11T09:14:15.403Z,1016.17
2023-02-11T09:15:15.405Z,1016.22
2023-02-11T09:16:15.547Z,1016.28
2023-02-11T09:17:15.353Z,1016.24
2023-02-11T09:18:15.360Z,1016.24
2023-02-11T09:19:15.346Z,1016.23
2023-02-11T09:20:15.311Z,1016.31
2023-02-11T09:21:15.306Z,1016.32
2023-02-11T09:22:15.284Z,1016.27
2023-02-11T09:23:18.279Z,1016.34
2023-02-11T09:24:15.258Z,1016.37
2023-02-11T09:25:15.252Z,1016.38
2023-02-11T09:26:15.256Z,1016.37
2023-02-11T09:27:15.232Z,1016.36
2023-02-11T09:28:15.239Z,1016.39
2023-02-11T09:29:15.195Z,1016.47
2023-02-11T09:30:15.180Z,1016.52
2023-02-11T09:31:15.310Z,1016.52
2023-02-11T09:32:15.368Z,1016.53
2023-02-11T09:33:15.152Z,1016.59
2023-02-11T09:34:15.135Z,1016.61
2023-02-11T09:35:15.148Z,1016.67
2023-02-11T09:36:15.106Z,1016.66
2023-02-11T09:37:15.103Z,1016.71
2023-02-11T09:38:15.090Z,1016.80
2023-02-11T09:39:15.079Z,1016.75
2023-02-11T09:40:15.049Z,1016.71
2023-02-11T09:41:15.051Z,1016.78
2023-02-11T09:42:15.018Z,1016.67
2023-02-11T09:43:15.020Z,1016.66
2023-02-11T09:44:15.004Z,1016.64
2023-02-11T09:45:14.979Z,1016.64
2023-02-11T09:46:15.051Z,1016.61
2023-02-11T09:47:14.970Z,1016.70
2023-02-11T09:48:14.950Z,1016.66
2023-02-11T09:49:14.937Z,1016.65
2023-02-11T09:50:14.919Z,1016.63
2023-02-11T09:51:14.909Z,1016.66
2023-02-11T09:52:14.896Z,1016.65
2023-02-11T09:53:14.899Z,1016.66
2023-02-11T09:54:14.868Z,1016.59
2023-02-11T09:55:14.856Z,1016.59
2023-02-11T09:56:14.840Z,1016.58
2023-02-11T09:57:27.986Z,1016.60
2023-02-11T09:58:15.832Z,1016.60
2023-02-11T09:59:14.798Z,1016.64
2023-02-11T10:00:14.789Z,1016.63
2023-02-11T10:01:14.826Z,1016.62
2023-02-11T10:02:14.760Z,1016.64
2023-02-11T10:03:14.758Z,1016.64
2023-02-11T10:04:14.780Z,1016.67
2023-02-11T10:05:14.729Z,1016.64
2023-02-11T10:06:14.708Z,1016.65
2023-02-11T10:07:14.701Z,1016.61
2023-02-11T10:08:16.833Z,1016.66
2023-02-11T10:09:14.688Z,1016.68
2023-02-11T10:10:14.663Z,1016.68
2023-02-11T10:11:29.658Z,1016.60
2023-02-11T10:12:15.627Z,1016.63
2023-02-11T10:13:14.620Z,1016.66
2023-02-11T10:14:14.623Z,1016.62
2023-02-11T10:15:14.596Z,1016.56
2023-02-11T10:16:14.618Z,1016.55
2023-02-11T10:17:14.566Z,1016.46
2023-02-11T10:18:14.550Z,1016.51
2023-02-11T10:19:14.557Z,1016.46
2023-02-11T10:20:16.859Z,1016.42
2023-02-11T10:21:14.571Z,1016.41
2023-02-11T10:22:14.495Z,1016.40
2023-02-11T10:23:14.506Z,1016.39
2023-02-11T10:24:14.475Z,1016.37
2023-02-11T10:25:14.473Z,1016.32
2023-02-11T10:26:14.446Z,1016.35
2023-02-11T10:27:14.438Z,1016.37
2023-02-11T10:28:14.475Z,1016.35
2023-02-11T10:29:14.427Z,1016.36
2023-02-11T10:30:14.393Z,1016.31
2023-02-11T10:31:14.522Z,1016.32
2023-02-11T10:32:14.409Z,1016.31
2023-02-11T10:33:14.367Z,1016.30
2023-02-11T10:34:14.351Z,1016.29
2023-02-11T10:35:14.329Z,1016.33
2023-02-11T10:36:14.325Z,1016.33
2023-02-11T10:37:14.302Z,1016.35
2023-02-11T10:38:14.282Z,1016.33
2023-02-11T10:39:14.282Z,1016.32
2023-02-11T10:40:14.252Z,1016.33
2023-02-11T10:41:14.266Z,1016.27
2023-02-11T10:42:14.257Z,1016.30
2023-02-11T10:43:14.222Z,1016.25
2023-02-11T10:44:14.220Z,1016.27
2023-02-11T10:45:14.202Z,1016.29
2023-02-11T10:46:14.217Z,1016.25
2023-02-11T10:47:14.173Z,1016.26
2023-02-11T10:48:16.448Z,1016.34
2023-02-11T10:49:14.151Z,1016.28
2023-02-11T10:50:14.144Z,1016.33
2023-02-11T10:51:14.696Z,1016.31
2023-02-11T10:52:14.103Z,1016.30
2023-02-11T10:53:14.091Z,1016.32
2023-02-11T10:54:14.079Z,1016.37
2023-02-11T10:55:14.060Z,1016.33
2023-02-11T10:56:14.061Z,1016.38
2023-02-11T10:57:14.059Z,1016.33
2023-02-11T10:58:14.020Z,1016.35
2023-02-11T10:59:14.030Z,1016.38
2023-02-11T11:00:13.988Z,1016.33
2023-02-11T11:01:24.206Z,1016.34
2023-02-11T11:02:15.049Z,1016.29
2023-02-11T11:03:13.968Z,1016.28
2023-02-11T11:04:14.002Z,1016.28
2023-02-11T11:05:13.937Z,1016.29
2023-02-11T11:06:13.922Z,1016.27
2023-02-11T11:07:13.912Z,1016.32
2023-02-11T11:08:13.887Z,1016.34
2023-02-11T11:09:13.908Z,1016.34
2023-02-11T11:10:13.865Z,1016.37
2023-02-11T11:11:13.848Z,1016.40
2023-02-11T11:12:13.838Z,1016.40
2023-02-11T11:13:13.828Z,1016.37
2023-02-11T11:14:13.831Z,1016.28
2023-02-11T11:15:13.807Z,1016.23
2023-02-11T11:16:13.871Z,1016.12
2023-02-11T11:17:13.791Z,1016.22
2023-02-11T11:18:21.359Z,1016.24
2023-02-11T11:19:14.767Z,1016.22
2023-02-11T11:20:13.728Z,1016.26
2023-02-11T11:21:13.730Z,1016.29
2023-02-11T11:22:13.726Z,1016.29
2023-02-11T11:23:13.728Z,1016.24
2023-02-11T11:24:13.699Z,1016.29
2023-02-11T11:25:13.665Z,1016.34
2023-02-11T11:26:13.662Z,1016.40
2023-02-11T11:27:13.646Z,1016.39
2023-02-11T11:28:13.720Z,1016.37
2023-02-11T11:29:13.631Z,1016.34
2023-02-11T11:30:13.616Z,1016.23
2023-02-11T11:31:13.703Z,1016.26
2023-02-11T11:32:13.574Z,1016.23
2023-02-11T11:33:13.568Z,1016.24
2023-02-11T11:34:13.561Z,1016.18
2023-02-11T11:35:13.545Z,1016.16
2023-02-11T11:36:13.522Z,1016.15
2023-02-11T11:37:13.513Z,1016.15
2023-02-11T11:38:13.490Z,1016.11
2023-02-11T11:39:13.500Z,1016.15
2023-02-11T11:40:13.487Z,1016.07
2023-02-11T11:41:13.458Z,1016.19
2023-02-11T11:42:13.447Z,1016.16
2023-02-11T11:43:13.436Z,1016.12
2023-02-11T11:44:13.427Z,1016.14
2023-02-11T11:45:13.405Z,1016.18
2023-02-11T11:46:13.428Z,1016.14
2023-02-11T11:47:13.414Z,1016.11
2023-02-11T11:48:13.368Z,1016.15
2023-02-11T11:49:13.380Z,1016.21
2023-02-11T11:50:13.334Z,1016.18
2023-02-11T11:51:13.324Z,1016.16
2023-02-11T11:52:13.315Z,1016.21
2023-02-11T11:53:13.320Z,1016.26
2023-02-11T11:54:13.292Z,1016.26
2023-02-11T11:55:13.278Z,1016.31
2023-02-11T11:56:13.268Z,1016.35
2023-02-11T11:57:13.251Z,1016.32
2023-02-11T11:58:13.244Z,1016.25
2023-02-11T11:59:13.244Z,1016.29
2023-02-11T12:00:13.208Z,1016.23
2023-02-11T12:01:13.199Z,1016.34
2023-02-11T12:02:13.209Z,1016.32
2023-02-11T12:03:13.295Z,1016.37
2023-02-11T12:04:13.161Z,1016.36
2023-02-11T12:05:13.151Z,1016.42